Time;durP1;ratioP1;P1;durP2;ratioP2;P2;SDS_P1;SDS_P2;PMS_P1;PMS_P2;Temp;Humidity;BMP_temperature;BMP_pressure;BME280_temperature;BME280_humidity;BME280_pressure;Samples;Min_cycle;Max_cycle;Signal;HPM_P1;HPM_P2
2024/03/13 00:01:49;;;;;;;0.05;0.05;;;;;;;11.04;100.00;100103.50;6221725;23;20008;-79
2024/03/13 00:04:14;;;;;;;0.00;0.00;;;;;;;10.99;100.00;100098.88;6245575;23;20555;-79
2024/03/13 00:06:40;;;;;;;0.00;0.00;;;;;;;10.92;100.00;100103.81;6198308;23;20004;-79
2024/03/13 00:09:07;;;;;;;0.00;0.00;;;;;;;10.82;100.00;100088.25;6195282;23;20019;-79
2024/03/13 00:11:33;;;;;;;0.00;0.00;;;;;;;10.86;100.00;100111.19;6226954;23;19996;-78
2024/03/13 00:14:16;;;;;;;0.00;0.00;;;;;;;10.79;100.00;100111.50;6229622;23;20024;-77
2024/03/13 00:16:43;;;;;;;0.00;0.00;;;;;;;10.70;100.00;100101.38;6231152;23;20060;-79
2024/03/13 00:19:14;;;;;;;0.00;0.00;;;;;;;10.80;100.00;100104.09;6200788;23;20325;-80
2024/03/13 00:22:05;;;;;;;0.00;0.00;;;;;;;10.78;100.00;100114.50;6177692;23;19999;-79
2024/03/13 00:24:40;;;;;;;;;;;;;;;;;;;;;
2024/03/13 00:27:17;;;;;;;0.00;0.00;;;;;;;10.63;100.00;100091.53;6251560;23;20034;-79
2024/03/13 00:29:52;;;;;;;0.00;0.00;;;;;;;10.61;100.00;100092.91;6200770;23;20027;-78
2024/03/13 00:32:23;;;;;;;0.00;0.00;;;;;;;10.67;100.00;100107.41;6224282;23;20043;-78
2024/03/13 00:34:49;;;;;;;0.00;0.00;;;;;;;10.61;100.00;100095.63;6224322;23;20442;-79
2024/03/13 00:37:16;;;;;;;0.00;0.00;;;;;;;10.71;100.00;100108.50;6251306;23;20445;-78
2024/03/13 00:39:42;;;;;;;0.00;0.00;;;;;;;10.67;100.00;100100.00;6257152;23;19992;-81
2024/03/13 00:42:13;;;;;;;0.00;0.00;;;;;;;10.53;100.00;100074.31;6229603;23;20014;-80
2024/03/13 00:44:40;;;;;;;0.00;0.00;;;;;;;10.58;100.00;100082.53;6227080;23;20020;-81
2024/03/13 00:47:06;;;;;;;0.00;0.00;;;;;;;10.59;100.00;100095.91;6198876;23;20426;-79
2024/03/13 00:49:32;;;;;;;0.00;0.00;;;;;;;10.64;100.00;100104.13;6249947;23;20023;-80
2024/03/13 00:51:59;;;;;;;0.00;0.00;;;;;;;10.61;100.00;100073.78;6221270;23;20419;-80
2024/03/13 00:54:27;;;;;;;0.00;0.00;;;;;;;10.64;100.00;100104.13;6224291;23;20092;-79
2024/03/13 00:56:57;;;;;;;0.05;0.05;;;;;;;10.54;100.00;100070.50;6221930;23;20008;-78
2024/03/13 00:59:29;;;;;;;0.00;0.00;;;;;;;10.53;100.00;100080.63;6219512;23;20038;-79
2024/03/13 01:01:58;;;;;;;0.00;0.00;;;;;;;10.65;100.00;100097.53;6222106;23;20019;-78
2024/03/13 01:04:24;;;;;;;0.00;0.00;;;;;;;10.64;100.00;100098.66;6197509;23;20019;-79
2024/03/13 01:06:51;;;;;;;0.00;0.00;;;;;;;10.62;100.00;100098.09;6172872;23;20004;-79
2024/03/13 01:09:19;;;;;;;0.00;0.00;;;;;;;10.60;100.00;100097.56;6220187;23;20023;-78
2024/03/13 01:11:46;;;;;;;0.00;0.00;;;;;;;10.47;100.00;100074.31;6173830;23;20019;-79
2024/03/13 01:14:19;;;;;;;0.00;0.00;;;;;;;10.51;100.00;100079.25;6197263;23;20057;-78
2024/03/13 01:16:51;;;;;;;0.00;0.00;;;;;;;10.45;100.00;100100.28;6198659;23;20044;-78
2024/03/13 01:19:21;;;;;;;0.00;0.00;;;;;;;10.42;100.00;100095.38;6220418;23;20240;-76
2024/03/13 01:21:54;;;;;;;0.00;0.00;;;;;;;10.37;100.00;100089.91;6245603;23;20004;-78
2024/03/13 01:24:20;;;;;;;0.00;0.00;;;;;;;10.46;100.00;100102.75;6219899;23;20059;-79
2024/03/13 01:26:49;;;;;;;0.00;0.00;;;;;;;10.39;100.00;100090.47;6219165;23;20014;-77
2024/03/13 01:29:15;;;;;;;0.00;0.00;;;;;;;10.46;100.00;100104.66;6222561;23;20008;-78
2024/03/13 01:31:48;;;;;;;0.00;0.00;;;;;;;10.42;100.00;100098.09;6193552;23;20008;-78
2024/03/13 01:34:14;;;;;;;0.00;0.00;;;;;;;10.47;100.00;100087.19;6199041;23;20004;-76
2024/03/13 01:39:26;;;;;;;0.00;0.00;;;;;;;10.68;100.00;100109.06;6251892;23;20010;-76
2024/03/13 01:56:21;;;;;;;0.00;0.00;;;;;;;10.64;100.00;100093.19;6246907;23;20065;-79
2024/03/13 01:59:20;;;;;;;0.00;0.00;;;;;;;10.48;100.00;100073.25;6213072;23;20008;-80
2024/03/13 02:04:34;;;;;;;0.00;0.00;;;;;;;10.45;100.00;100078.41;6247888;23;20115;-79
2024/03/13 02:07:05;;;;;;;0.00;0.00;;;;;;;10.24;100.00;100053.78;6199142;23;20042;-83
2024/03/13 02:09:31;;;;;;;0.00;0.00;;;;;;;10.27;100.00;100052.44;6247040;23;20075;-80
2024/03/13 02:11:56;;;;;;;0.00;0.00;;;;;;;10.46;100.00;100080.06;6177018;23;20008;-80
2024/03/13 02:14:22;;;;;;;0.00;0.00;;;;;;;10.33;100.00;100059.53;6198443;23;19992;-78
2024/03/13 02:16:53;;;;;;;0.00;0.00;;;;;;;10.42;100.00;100068.03;6225347;23;20007;-79
2024/03/13 02:19:24;;;;;;;0.00;0.00;;;;;;;10.28;100.00;100046.69;6224864;23;20015;-79
2024/03/13 02:21:59;;;;;;;0.00;0.00;;;;;;;10.42;100.00;100065.31;6200538;23;20008;-79
2024/03/13 02:24:24;;;;;;;;;;;;;;;10.48;100.00;100069.66;6225793;23;20078;-78
2024/03/13 02:26:52;;;;;;;0.00;0.00;;;;;;;10.48;100.00;100072.41;6225289;23;19990;-79
2024/03/13 02:29:17;;;;;;;0.00;0.00;;;;;;;10.31;100.00;100057.06;6201419;23;20008;-78
2024/03/13 02:31:43;;;;;;;0.00;0.00;;;;;;;10.25;100.00;100057.34;6197577;23;20320;-78
2024/03/13 02:34:09;;;;;;;0.00;0.00;;;;;;;10.21;100.00;100062.53;6200289;23;20050;-76
2024/03/13 02:36:56;;;;;;;0.00;0.00;;;;;;;10.21;100.00;100062.53;6252113;23;20066;-77
2024/03/13 02:39:23;;;;;;;0.00;0.00;;;;;;;10.22;100.00;100091.50;6204340;23;19999;-77
2024/03/13 02:41:49;;;;;;;0.00;0.00;;;;;;;10.22;100.00;100086.06;6223424;23;20441;-78
2024/03/13 02:44:14;;;;;;;0.00;0.00;;;;;;;10.23;100.00;100076.72;6223572;23;20012;-78
2024/03/13 02:46:40;;;;;;;0.00;0.00;;;;;;;10.18;100.00;100067.72;6222744;23;20388;-78
2024/03/13 02:49:06;;;;;;;0.00;0.00;;;;;;;10.20;100.00;100066.34;6196012;23;20015;-78
2024/03/13 02:51:34;;;;;;;0.00;0.00;;;;;;;10.29;100.00;100063.91;6250650;22;20468;-78
2024/03/13 02:54:04;;;;;;;0.00;0.00;;;;;;;10.31;100.00;100067.19;6222253;23;20063;-77
2024/03/13 02:56:30;;;;;;;0.00;0.00;;;;;;;10.29;100.00;100059.28;6251771;23;20008;-79
2024/03/13 02:58:55;;;;;;;0.00;0.00;;;;;;;10.38;100.00;100073.25;6223628;23;20012;-79
2024/03/13 03:01:21;;;;;;;0.00;0.00;;;;;;;10.29;100.00;100036.56;6253169;23;20392;-79
2024/03/13 03:03:46;;;;;;;0.00;0.00;;;;;;;10.35;100.00;100035.50;6203266;23;20008;-79
2024/03/13 03:06:15;;;;;;;0.00;0.00;;;;;;;10.31;100.00;100034.41;6175642;23;19988;-81
2024/03/13 03:08:42;;;;;;;0.00;0.00;;;;;;;10.50;100.00;100048.38;6227867;23;20027;-77
2024/03/13 03:11:07;;;;;;;0.00;0.00;;;;;;;10.44;100.00;100033.88;6198312;23;20045;-77
2024/03/13 03:13:35;;;;;;;0.00;0.00;;;;;;;10.56;100.00;100041.78;6199014;23;20008;-77
2024/03/13 03:16:01;;;;;;;0.00;0.00;;;;;;;10.61;100.00;100044.50;6198461;23;20011;-77
2024/03/13 03:18:35;;;;;;;0.00;0.00;;;;;;;10.53;100.00;100025.94;6227584;23;20004;-77
2024/03/13 03:21:02;;;;;;;;;;;;;;;10.61;100.00;100039.03;6225475;23;20007;-76
2024/03/13 03:23:28;;;;;;;0.00;0.00;;;;;;;10.58;100.00;100042.31;6201487;23;19982;-78
2024/03/13 03:25:53;;;;;;;0.00;0.00;;;;;;;10.50;100.00;100021.03;6253771;23;20000;-79
2024/03/13 03:28:19;;;;;;;0.00;0.00;;;;;;;10.55;100.00;100028.41;6225799;23;20031;-78
2024/03/13 03:30:46;;;;;;;0.00;0.00;;;;;;;10.58;100.00;100027.84;6255684;23;20038;-78
2024/03/13 03:33:17;;;;;;;0.00;0.00;;;;;;;10.59;100.00;100030.28;6229218;23;20054;-82
2024/03/13 03:35:43;;;;;;;0.00;0.00;;;;;;;10.52;100.00;100016.09;6204940;23;20027;-79
2024/03/13 03:38:22;;;;;;;0.00;0.00;;;;;;;10.48;100.00;100007.63;6226625;23;20007;-78
2024/03/13 03:40:48;;;;;;;0.00;0.00;;;;;;;10.54;100.00;100021.28;6204048;23;20012;-79
2024/03/13 03:43:18;;;;;;;0.00;0.00;;;;;;;10.39;100.00;99997.53;6204147;23;20084;-78
2024/03/13 03:45:46;;;;;;;0.00;0.00;;;;;;;10.54;100.00;100027.59;6254270;23;20004;-80
2024/03/13 03:48:11;;;;;;;0.00;0.00;;;;;;;10.50;100.00;100021.03;6211772;23;20008;-79
2024/03/13 03:50:39;;;;;;;0.00;0.00;;;;;;;10.42;100.00;100018.84;6199675;23;19992;-79
2024/03/13 03:53:05;;;;;;;0.00;0.00;;;;;;;10.39;100.00;100006.53;6254244;23;20000;-79
2024/03/13 03:55:31;;;;;;;0.00;0.00;;;;;;;10.51;100.00;100039.03;6172791;23;20005;-79
2024/03/13 03:58:00;;;;;;;0.00;0.00;;;;;;;10.39;100.00;100008.44;6199657;23;20012;-79
2024/03/13 04:00:26;;;;;;;0.00;0.00;;;;;;;10.48;100.00;100034.97;6242713;22;20013;-79
2024/03/13 04:02:59;;;;;;;0.00;0.00;;;;;;;10.46;100.00;100028.13;6193412;23;20024;-79
2024/03/13 04:05:26;;;;;;;0.00;0.00;;;;;;;10.39;100.00;100014.72;6219441;23;20015;-79
2024/03/13 04:07:51;;;;;;;0.00;0.00;;;;;;;10.37;100.00;99999.72;6217454;23;20066;-79
2024/03/13 04:10:19;;;;;;;0.00;0.00;;;;;;;10.36;100.00;100004.34;6193836;23;20009;-79
2024/03/13 04:12:46;;;;;;;0.00;0.00;;;;;;;10.35;100.00;100007.34;6217462;23;20017;-79
2024/03/13 04:15:14;;;;;;;0.00;0.00;;;;;;;10.42;100.00;100027.03;6217183;23;20046;-79
2024/03/13 04:17:39;;;;;;;0.00;0.00;;;;;;;10.41;100.00;100028.13;6216599;23;20005;-79
2024/03/13 04:20:17;;;;;;;0.08;0.08;;;;;;;10.46;100.00;100025.41;6194449;23;20019;-79
2024/03/13 04:22:42;;;;;;;0.00;0.00;;;;;;;10.48;100.00;100034.97;6192153;23;19997;-78
2024/03/13 04:25:10;;;;;;;0.00;0.00;;;;;;;10.42;100.00;100008.72;6192901;23;20608;-77
2024/03/13 04:27:37;;;;;;;0.00;0.00;;;;;;;10.40;100.00;100001.91;6190194;23;20009;-77
2024/03/13 04:30:03;;;;;;;0.10;0.10;;;;;;;10.49;100.00;100024.84;6190014;23;19989;-77
2024/03/13 04:32:28;;;;;;;0.00;0.00;;;;;;;10.50;100.00;100010.09;6216113;23;20012;-78
2024/03/13 04:34:54;;;;;;;0.00;0.00;;;;;;;10.50;100.00;100010.09;6217503;23;20012;-76
2024/03/13 04:37:23;;;;;;;0.00;0.00;;;;;;;10.46;100.00;99993.41;6192155;23;20019;-77
2024/03/13 04:39:48;;;;;;;0.00;0.00;;;;;;;10.56;100.00;100008.16;6168828;23;20074;-78
2024/03/13 04:42:14;;;;;;;0.00;0.00;;;;;;;10.46;100.00;99992.59;6218223;23;20319;-79
2024/03/13 04:44:39;;;;;;;0.00;0.00;;;;;;;10.53;100.00;100008.69;6220362;23;20408;-80
2024/03/13 04:47:17;;;;;;;0.00;0.00;;;;;;;10.39;100.00;99986.59;6219636;23;20024;-79
2024/03/13 04:49:43;;;;;;;0.00;0.00;;;;;;;10.45;100.00;100000.00;6194914;23;20005;-80
2024/03/13 04:52:11;;;;;;;0.00;0.00;;;;;;;10.35;100.00;99980.03;6219908;23;20011;-79
2024/03/13 04:54:39;;;;;;;0.00;0.00;;;;;;;10.47;100.00;99989.59;6243320;23;20004;-77
2024/03/13 04:57:17;;;;;;;0.00;0.00;;;;;;;10.45;100.00;99980.00;6244877;23;19988;-80
2024/03/13 05:02:32;;;;;;;0.00;0.00;;;;;;;10.38;100.00;99961.19;6207643;23;19997;-78
2024/03/13 05:04:58;;;;;;;0.00;0.00;;;;;;;10.47;100.00;99977.84;6193960;23;20001;-79
2024/03/13 05:07:23;;;;;;;0.00;0.00;;;;;;;10.59;100.00;99996.69;6219930;23;19984;-78
2024/03/13 05:09:52;;;;;;;0.00;0.00;;;;;;;10.19;100.00;99928.13;6217296;23;20005;-79
2024/03/13 05:12:36;;;;;;;;;;;;;;;;;;;;;
2024/03/13 05:15:22;;;;;;;;;;;;;;;;;;;;;
2024/03/13 05:17:49;;;;;;;0.00;0.00;;;;;;;10.51;100.00;99989.84;6221003;23;20062;-78
2024/03/13 05:20:17;;;;;;;0.10;0.10;;;;;;;10.56;100.00;99997.22;6217913;23;20005;-78
2024/03/13 05:22:44;;;;;;;0.00;0.00;;;;;;;10.48;100.00;99979.44;6193078;23;20013;-77
2024/03/13 05:25:17;;;;;;;0.00;0.00;;;;;;;10.39;100.00;99968.25;6191982;23;20649;-78
2024/03/13 05:27:43;;;;;;;0.00;0.00;;;;;;;10.38;100.00;99984.94;6194225;23;20011;-78
2024/03/13 05:30:10;;;;;;;0.00;0.00;;;;;;;10.35;100.00;99985.50;6191950;23;20064;-79
2024/03/13 05:32:36;;;;;;;0.00;0.00;;;;;;;10.33;100.00;99993.13;6220643;23;20070;-79
2024/03/13 05:35:05;;;;;;;0.00;0.00;;;;;;;10.31;100.00;99985.22;6194540;23;20020;-80
2024/03/13 05:37:31;;;;;;;0.00;0.00;;;;;;;10.22;100.00;99995.88;6218919;23;20015;-79
2024/03/13 05:39:58;;;;;;;0.00;0.00;;;;;;;10.17;100.00;99976.72;6218546;23;20009;-78
2024/03/13 05:42:24;;;;;;;0.00;0.00;;;;;;;10.20;100.00;99967.97;6195902;23;20016;-78
2024/03/13 05:44:49;;;;;;;0.00;0.00;;;;;;;10.30;100.00;99992.56;6193766;23;20056;-79
2024/03/13 05:47:20;;;;;;;0.00;0.00;;;;;;;10.24;100.00;99974.53;6220594;23;20009;-79
2024/03/13 05:49:50;;;;;;;0.00;0.00;;;;;;;10.31;100.00;99991.47;6221102;23;20015;-82
2024/03/13 05:52:34;;;;;;;0.00;0.00;;;;;;;10.30;100.00;99989.03;6221783;23;20008;-80
2024/03/13 05:55:01;;;;;;;0.00;0.00;;;;;;;10.21;100.00;99969.63;6220730;23;20081;-79
2024/03/13 05:57:27;;;;;;;0.00;0.00;;;;;;;10.29;100.00;99985.47;6195527;23;20087;-80
2024/03/13 05:59:53;;;;;;;0.10;0.10;;;;;;;10.26;100.00;99977.81;6219063;23;20051;-78
2024/03/13 06:02:23;;;;;;;0.00;0.00;;;;;;;10.18;100.00;99967.44;6195614;23;20674;-79
2024/03/13 06:05:02;;;;;;;0.00;0.00;;;;;;;10.33;100.00;99993.94;6196438;23;20012;-80
2024/03/13 06:07:55;;;;;;;;;;;;;;;;;;;;;
2024/03/13 06:10:24;;;;;;;0.00;0.00;;;;;;;10.34;100.00;99984.69;6220903;23;20036;-77
2024/03/13 06:13:16;;;;;;;;;;;;;;;;;;;;;
2024/03/13 06:15:42;;;;;;;0.00;0.00;;;;;;;10.25;100.00;99987.13;6220989;23;20028;-77
2024/03/13 06:18:08;;;;;;;0.00;0.00;;;;;;;10.18;100.00;99981.13;6193065;23;20008;-78
2024/03/13 06:20:39;;;;;;;0.00;0.00;;;;;;;10.24;100.00;99984.66;6218823;23;20012;-79
2024/03/13 06:23:27;;;;;;;0.00;0.00;;;;;;;10.02;100.00;99955.72;6220137;23;20005;-79
2024/03/13 06:26:04;;;;;;;0.00;0.00;;;;;;;10.25;100.00;100002.69;6218623;23;19997;-78
2024/03/13 06:31:27;;;;;;;0.00;0.00;;;;;;;10.26;100.00;99977.00;6220758;23;20327;-76
2024/03/13 06:34:09;;;;;;;;;;;;;;;;;;;;;
2024/03/13 06:36:45;;;;;;;0.00;0.00;;;;;;;10.19;100.00;99985.50;6219436;23;20084;-76
2024/03/13 06:39:17;;;;;;;0.00;0.00;;;;;;;10.13;100.00;99975.63;6219534;23;20001;-78
2024/03/13 06:41:43;;;;;;;0.00;0.00;;;;;;;10.18;100.00;99981.13;6220943;23;20064;-77
2024/03/13 06:44:20;;;;;;;0.00;0.00;;;;;;;10.26;100.00;99994.22;6195073;23;20004;-77
2024/03/13 06:46:46;;;;;;;0.00;0.00;;;;;;;10.22;100.00;99976.75;6218606;23;20019;-78
2024/03/13 06:49:24;;;;;;;;;;;;;;;;;;;;;
2024/03/13 06:51:59;;;;;;;0.00;0.00;;;;;;;10.09;100.00;99956.25;6225218;23;20035;-79
2024/03/13 06:54:36;;;;;;;0.00;0.00;;;;;;;10.26;100.00;99993.41;6225716;23;20056;-79
2024/03/13 06:57:04;;;;;;;0.00;0.00;;;;;;;10.30;100.00;99995.31;6231500;23;20042;-76
2024/03/13 06:59:35;;;;;;;0.00;0.00;;;;;;;10.18;100.00;99993.94;6230030;23;20027;-78
2024/03/13 07:02:02;;;;;;;0.00;0.00;;;;;;;9.92;100.00;99956.53;6231546;23;20004;-80
2024/03/13 07:04:29;;;;;;;0.00;0.00;;;;;;;9.97;100.00;99969.34;6225856;23;20023;-80
2024/03/13 07:07:14;;;;;;;0.00;0.00;;;;;;;10.02;100.00;99977.56;6252940;23;19996;-79
2024/03/13 07:10:03;;;;;;;0.00;0.00;;;;;;;9.98;100.00;99959.28;6227786;23;20023;-79
2024/03/13 07:12:47;;;;;;;;;;;;;;;;;;;;;
2024/03/13 07:15:31;;;;;;;0.00;0.00;;;;;;;10.10;100.00;99973.47;6252771;23;20043;-80
2024/03/13 07:17:56;;;;;;;0.00;0.00;;;;;;;10.11;100.00;99958.72;6225121;23;20012;-79
2024/03/13 07:20:22;;;;;;;0.00;0.00;;;;;;;10.42;100.00;100005.16;6232449;23;20030;-78
2024/03/13 07:22:47;;;;;;;0.00;0.00;;;;;;;10.33;100.00;99987.66;6232699;23;20003;-79
2024/03/13 07:25:13;;;;;;;0.00;0.00;;;;;;;10.51;100.00;99989.84;6259545;23;20040;-79
2024/03/13 07:27:39;;;;;;;0.00;0.00;;;;;;;10.20;100.00;99943.38;6212157;23;20102;-79
2024/03/13 07:30:05;;;;;;;0.00;0.00;;;;;;;10.50;100.00;99999.16;6238702;23;19999;-78
2024/03/13 07:32:44;;;;;;;;;;;;;;;;;;;;;
2024/03/13 07:35:21;;;;;;;0.00;0.00;;;;;;;10.25;100.00;99943.41;6262332;23;20003;-78
2024/03/13 07:37:46;;;;;;;0.00;0.00;;;;;;;10.40;100.00;99961.72;6254680;23;19992;-80
2024/03/13 07:40:15;;;;;;;0.00;0.00;;;;;;;10.25;100.00;99954.31;6228414;23;20426;-80
2024/03/13 07:42:44;;;;;;;0.00;0.00;;;;;;;10.33;100.00;99987.66;6228369;23;20019;-80
2024/03/13 07:45:14;;;;;;;0.00;0.00;;;;;;;10.54;100.00;99992.03;6234519;23;20012;-77
2024/03/13 07:47:40;;;;;;;0.00;0.00;;;;;;;10.46;100.00;100004.34;6223149;23;19996;-76
2024/03/13 07:50:07;;;;;;;0.00;0.00;;;;;;;10.44;100.00;99994.75;6251067;22;20419;-77
2024/03/13 07:52:32;;;;;;;0.00;0.00;;;;;;;10.38;100.00;99991.25;6223116;23;20008;-76
2024/03/13 07:54:57;;;;;;;0.00;0.00;;;;;;;10.41;100.00;99987.13;6176266;23;20058;-77
2024/03/13 07:57:24;;;;;;;0.00;0.00;;;;;;;10.47;100.00;99988.78;6221564;23;20011;-77
2024/03/13 07:59:52;;;;;;;0.00;0.00;;;;;;;10.48;100.00;99991.22;6220878;23;20030;-77
2024/03/13 08:02:17;;;;;;;0.00;0.00;;;;;;;10.45;100.00;99990.94;6224252;23;20008;-76
2024/03/13 08:04:45;;;;;;;0.00;0.00;;;;;;;10.54;100.00;99994.78;6197134;23;19992;-76
2024/03/13 08:07:11;;;;;;;0.00;0.00;;;;;;;10.27;100.00;99971.25;6224020;23;20008;-78
2024/03/13 08:09:38;;;;;;;0.00;0.00;;;;;;;10.41;100.00;99995.31;6222160;23;20094;-76
2024/03/13 08:12:04;;;;;;;0.00;0.00;;;;;;;10.40;100.00;99993.69;6221731;23;20016;-77
2024/03/13 08:14:29;;;;;;;0.00;0.00;;;;;;;10.46;100.00;100030.88;6221106;23;20011;-76
2024/03/13 08:16:55;;;;;;;0.00;0.00;;;;;;;10.41;100.00;100000.78;6223378;23;20012;-76
2024/03/13 08:19:22;;;;;;;0.00;0.00;;;;;;;10.49;100.00;100005.72;6245596;23;20058;-76
2024/03/13 08:21:48;;;;;;;0.00;0.00;;;;;;;10.51;100.00;100006.25;6200864;23;20012;-77
2024/03/13 08:24:14;;;;;;;0.00;0.00;;;;;;;10.56;100.00;99998.03;6222108;23;20007;-77
2024/03/13 08:26:47;;;;;;;0.00;0.00;;;;;;;10.61;100.00;100011.69;6196961;23;20009;-78
2024/03/13 08:29:15;;;;;;;0.00;0.00;;;;;;;10.59;100.00;100013.09;6172562;23;20343;-75
2024/03/13 08:31:42;;;;;;;0.00;0.00;;;;;;;10.55;100.00;100014.72;6195599;23;20382;-76
2024/03/13 08:34:09;;;;;;;0.00;0.00;;;;;;;10.47;100.00;100005.19;6197563;23;20008;-76
2024/03/13 08:36:34;;;;;;;0.00;0.00;;;;;;;10.41;100.00;100008.97;6221083;23;20012;-76
2024/03/13 08:39:00;;;;;;;0.00;0.00;;;;;;;10.47;100.00;100027.03;6225135;23;20009;-77
2024/03/13 08:41:26;;;;;;;0.00;0.00;;;;;;;10.42;100.00;100018.84;6222189;23;20008;-76
2024/03/13 08:43:51;;;;;;;0.00;0.00;;;;;;;10.48;100.00;100028.66;6198739;23;20008;-76
2024/03/13 08:46:18;;;;;;;0.00;0.00;;;;;;;10.40;100.00;100021.84;6197243;23;20028;-77
2024/03/13 08:48:43;;;;;;;0.00;0.00;;;;;;;10.50;100.00;100026.50;6219422;23;20007;-77
2024/03/13 08:51:12;;;;;;;0.00;0.00;;;;;;;10.56;100.00;100030.84;6197707;23;20008;-75
2024/03/13 08:53:37;;;;;;;0.00;0.00;;;;;;;10.55;100.00;100018.25;6222670;23;20073;-77
2024/03/13 08:56:03;;;;;;;0.00;0.00;;;;;;;10.60;100.00;100021.00;6247589;23;20004;-75
2024/03/13 08:58:29;;;;;;;0.00;0.00;;;;;;;10.67;100.00;100022.63;6252242;23;20000;-76
2024/03/13 09:01:03;;;;;;;0.00;0.00;;;;;;;10.78;100.00;100043.41;6222001;23;20011;-77
2024/03/13 09:03:42;;;;;;;0.08;0.08;;;;;;;10.63;100.00;100042.31;6198484;23;20012;-76
2024/03/13 09:06:18;;;;;;;0.00;0.00;;;;;;;10.50;100.00;100026.50;6246219;23;20004;-75
2024/03/13 09:08:45;;;;;;;0.00;0.00;;;;;;;10.59;100.00;100013.88;6188692;23;20066;-76
2024/03/13 09:11:12;;;;;;;0.00;0.00;;;;;;;10.77;100.00;100025.34;6220798;23;20075;-78
2024/03/13 09:13:40;;;;;;;0.00;0.00;;;;;;;11.05;100.00;100050.44;6222345;23;20036;-77
2024/03/13 09:16:06;;;;;;;0.00;0.00;;;;;;;11.17;100.00;100042.75;6166982;23;20035;-76
2024/03/13 09:18:32;;;;;;;0.00;0.00;;;;;;;11.50;100.00;100048.63;6235913;23;20491;-77
2024/03/13 09:20:57;;;;;;;0.00;0.00;;;;;;;11.59;100.00;100059.81;6248099;23;20399;-77
2024/03/13 09:23:23;;;;;;;0.00;0.00;;;;;;;11.58;100.00;100060.88;6200734;23;20008;-78
2024/03/13 09:25:51;;;;;;;0.00;0.00;;;;;;;11.67;100.00;100062.75;6223203;23;20031;-78
2024/03/13 09:28:27;;;;;;;0.00;0.00;;;;;;;11.52;100.00;100038.19;6198632;23;20047;-78
2024/03/13 09:30:52;;;;;;;0.00;0.00;;;;;;;11.47;100.00;100043.72;6225668;23;20004;-78
2024/03/13 09:33:18;;;;;;;0.00;0.00;;;;;;;11.49;100.00;100036.84;6222088;23;19998;-77
2024/03/13 09:35:43;;;;;;;0.10;0.10;;;;;;;11.53;100.00;100043.41;6220681;23;20008;-77
2024/03/13 09:38:10;;;;;;;0.00;0.00;;;;;;;11.49;100.00;100052.44;6191842;23;20016;-76
2024/03/13 09:40:56;;;;;;;0.00;0.00;;;;;;;11.56;100.00;100058.44;6234101;23;20138;-76
2024/03/13 09:43:27;;;;;;;0.00;0.00;;;;;;;11.52;100.00;100030.81;6221197;23;20004;-77
2024/03/13 09:45:55;;;;;;;0.00;0.00;;;;;;;11.68;100.00;100039.75;6223400;23;20374;-77
2024/03/13 09:48:27;;;;;;;0.00;0.00;;;;;;;11.60;100.00;100012.16;6248217;23;20008;-75
2024/03/13 09:50:56;;;;;;;0.00;0.00;;;;;;;11.93;100.00;100051.69;6221723;23;20014;-77
2024/03/13 09:53:23;;;;;;;0.00;0.00;;;;;;;12.07;100.00;100053.78;6249291;23;20016;-77
2024/03/13 09:55:52;;;;;;;0.00;0.00;;;;;;;12.30;100.00;100050.31;6225313;23;20008;-76
2024/03/13 09:58:18;;;;;;;0.08;0.08;;;;;;;12.48;100.00;100051.53;6257020;23;20004;-77
2024/03/13 10:00:44;;;;;;;0.00;0.00;;;;;;;12.81;100.00;100049.03;6211202;23;20016;-77
2024/03/13 10:03:21;;;;;;;0.00;0.00;;;;;;;12.88;99.17;100065.16;6253188;23;20107;-77
2024/03/13 10:05:49;;;;;;;0.00;0.00;;;;;;;12.75;99.20;100056.50;6249477;23;20501;-77
2024/03/13 10:08:18;;;;;;;0.00;0.00;;;;;;;12.71;99.76;100060.91;6248260;23;20070;-77
2024/03/13 10:10:45;;;;;;;0.00;0.00;;;;;;;12.64;98.71;100049.47;6248022;23;20070;-76
2024/03/13 10:13:12;;;;;;;0.00;0.00;;;;;;;12.54;98.90;100039.44;6221662;23;20079;-76
2024/03/13 10:15:38;;;;;;;0.00;0.00;;;;;;;12.54;99.70;100044.06;6220384;23;20008;-75
2024/03/13 10:18:13;;;;;;;0.00;0.00;;;;;;;12.62;99.25;100048.94;6222274;23;20020;-77
2024/03/13 10:21:05;;;;;;;0.00;0.00;;;;;;;12.55;98.19;100045.72;6219583;23;20085;-76
2024/03/13 10:23:33;;;;;;;0.00;0.00;;;;;;;12.38;98.25;100051.63;6219893;23;20048;-76
2024/03/13 10:26:03;;;;;;;0.00;0.00;;;;;;;12.16;99.50;100057.56;6248017;23;20000;-77
2024/03/13 10:31:27;;;;;;;0.00;0.00;;;;;;;12.23;100.00;100038.88;6244605;23;20431;-77
2024/03/13 10:33:55;;;;;;;0.00;0.00;;;;;;;12.35;100.00;100053.03;6197656;23;20042;-75
2024/03/13 10:36:21;;;;;;;0.00;0.00;;;;;;;12.29;100.00;100036.91;6224035;23;20019;-78
2024/03/13 10:38:47;;;;;;;0.00;0.00;;;;;;;12.38;100.00;100054.34;6221527;23;20012;-77
2024/03/13 10:41:44;;;;;;;0.00;0.00;;;;;;;12.37;99.33;100039.03;6223497;23;20035;-79
2024/03/13 10:44:13;;;;;;;0.00;0.00;;;;;;;12.34;98.68;100028.66;6200218;23;20863;-78
2024/03/13 10:46:41;;;;;;;0.00;0.00;;;;;;;12.56;98.40;100019.94;6250369;23;19995;-78
2024/03/13 10:49:15;;;;;;;0.00;0.00;;;;;;;12.99;96.52;100039.22;6223859;23;20000;-76
2024/03/13 10:52:12;;;;;;;;;;;;;;;13.24;94.74;100045.53;6217408;23;20443;-77
2024/03/13 10:54:41;;;;;;;0.00;0.00;;;;;;;13.08;93.70;100014.69;6217264;23;19903;-77
2024/03/13 10:57:17;;;;;;;0.00;0.00;;;;;;;13.16;93.47;100032.47;6223412;23;20015;-78
2024/03/13 11:00:21;;;;;;;0.03;0.03;;;;;;;13.05;94.51;100038.09;6248933;23;20386;-77
2024/03/13 11:02:47;;;;;;;0.00;0.00;;;;;;;12.62;98.00;100029.75;6201901;23;20004;-78
2024/03/13 11:05:19;;;;;;;0.00;0.00;;;;;;;12.34;100.00;100040.41;6222284;23;20042;-78
2024/03/13 11:07:48;;;;;;;0.00;0.00;;;;;;;12.27;100.00;100050.09;6222990;22;20478;-77
2024/03/13 11:10:25;;;;;;;0.00;0.00;;;;;;;12.19;100.00;100051.50;6225583;23;19992;-76
2024/03/13 11:12:53;;;;;;;0.00;0.00;;;;;;;12.35;100.00;100044.81;6224492;23;20003;-76
2024/03/13 11:15:25;;;;;;;0.00;0.00;;;;;;;12.71;100.00;100038.97;6250253;23;20027;-77
2024/03/13 11:17:56;;;;;;;0.00;0.00;;;;;;;12.91;99.74;100053.59;6223270;23;20019;-77
2024/03/13 11:20:25;;;;;;;0.00;0.00;;;;;;;13.16;99.71;100040.72;6224003;23;20087;-77
2024/03/13 11:23:12;;;;;;;0.00;0.00;;;;;;;13.68;94.96;100041.72;6194352;23;20018;-76
2024/03/13 11:25:38;;;;;;;0.00;0.00;;;;;;;13.84;92.36;100049.72;6220539;23;20058;-76
2024/03/13 11:28:19;;;;;;;0.00;0.00;;;;;;;13.63;91.60;100047.28;6221812;23;20067;-77
2024/03/13 11:30:47;;;;;;;0.00;0.00;;;;;;;13.25;93.41;100031.50;6244230;23;20415;-77
2024/03/13 11:33:14;;;;;;;0.00;0.00;;;;;;;13.10;94.37;100045.44;6248207;23;20011;-76
2024/03/13 11:35:40;;;;;;;0.00;0.00;;;;;;;13.11;94.98;100036.06;6173009;23;20339;-76
2024/03/13 11:38:08;;;;;;;0.00;0.00;;;;;;;13.16;94.72;100030.53;6244543;23;20007;-76
2024/03/13 11:40:36;;;;;;;0.00;0.00;;;;;;;13.28;93.36;100008.16;6221211;23;20445;-78
2024/03/13 11:43:05;;;;;;;0.00;0.00;;;;;;;13.28;92.80;100033.66;6243856;23;20051;-76
2024/03/13 11:45:42;;;;;;;0.00;0.00;;;;;;;13.38;92.48;100035.50;6222188;23;20111;-76
2024/03/13 11:48:17;;;;;;;0.00;0.00;;;;;;;13.27;91.37;100044.94;6233429;23;20015;-77
2024/03/13 11:51:08;;;;;;;0.00;0.00;;;;;;;13.35;92.40;100030.59;6221119;23;20008;-77
2024/03/13 11:53:34;;;;;;;0.00;0.00;;;;;;;13.44;91.34;100039.81;6250981;23;20079;-77
2024/03/13 11:56:04;;;;;;;0.00;0.00;;;;;;;13.39;91.30;100050.88;6218728;23;20015;-77
2024/03/13 11:58:33;;;;;;;0.00;0.00;;;;;;;13.42;91.18;100030.25;6249215;23;20011;-77
2024/03/13 12:00:59;;;;;;;0.00;0.00;;;;;;;13.55;91.36;100040.50;6222409;23;20008;-75
2024/03/13 12:03:35;;;;;;;0.00;0.00;;;;;;;13.65;89.59;100035.97;6246988;23;19984;-76
2024/03/13 12:06:00;;;;;;;0.00;0.00;;;;;;;13.73;89.47;100036.13;6247121;23;20427;-76
2024/03/13 12:08:29;;;;;;;0.00;0.00;;;;;;;14.35;88.16;100031.63;6188600;23;20011;-75
2024/03/13 12:10:56;;;;;;;0.00;0.00;;;;;;;14.63;83.95;100035.28;6237857;23;20004;-74
2024/03/13 12:13:22;;;;;;;0.00;0.00;;;;;;;14.88;82.93;100031.25;6188073;23;20011;-75
2024/03/13 12:15:48;;;;;;;0.00;0.00;;;;;;;14.73;81.20;100048.84;6246425;23;20352;-75